Murtaugh, Idaho
Current Conditions -  °F | °C
As of 3:53 AM on Thursday 18 Dec 2014 (Local Time) from KTWF Reporting Station
Broken Clouds Broken Clouds  
Wind Chill: 31°   Ceiling: 8500
Heat Index: 31°   Visibility: 10mi
Dew Point: 23°   Wind: 0mph
Humidity: 72%   Direction: NA
Pressure: 30.06"   Gusts: NA
Location:  42.49°N, 114.16°W
Report Text: KTWF 181053Z AUTO 00000KT 10SM FEW065 BKN085 M01/M05 A3006 RMK AO2 SLP175 T10061050
Loading
Personal Weather Stations






























Interactive Weather Map New forecast layout! Learn more

10-Day Weather Forecast

Advertisements
Track Severe Weather on mobile